createdAt,value
2022-09-12T00:01:48.942Z,100.00
2022-09-12T00:04:15.337Z,100.00
2022-09-12T00:06:42.111Z,100.00
2022-09-12T00:09:11.503Z,100.00
2022-09-12T00:11:40.561Z,100.00
2022-09-12T00:14:09.034Z,100.00
2022-09-12T00:16:37.013Z,100.00
2022-09-12T00:19:05.201Z,100.00
2022-09-12T00:21:35.374Z,100.00
2022-09-12T00:24:02.019Z,100.00
2022-09-12T00:26:28.740Z,100.00
2022-09-12T00:28:55.124Z,100.00
2022-09-12T00:31:24.965Z,100.00
2022-09-12T00:33:52.589Z,100.00
2022-09-12T00:36:24.857Z,100.00
2022-09-12T00:38:51.821Z,100.00
2022-09-12T00:41:24.100Z,100.00
2022-09-12T00:43:56.577Z,100.00
2022-09-12T00:46:32.345Z,100.00
2022-09-12T00:49:07.441Z,100.00
2022-09-12T00:51:36.546Z,100.00
2022-09-12T00:54:09.055Z,100.00
2022-09-12T00:56:36.684Z,100.00
2022-09-12T00:59:10.924Z,100.00
2022-09-12T01:01:39.216Z,100.00
2022-09-12T01:04:05.642Z,100.00
2022-09-12T01:06:38.794Z,100.00
2022-09-12T01:09:05.816Z,100.00
2022-09-12T01:11:36.059Z,100.00
2022-09-12T01:14:02.526Z,100.00
2022-09-12T01:16:29.523Z,100.00
2022-09-12T01:19:00.045Z,100.00
2022-09-12T01:21:59.434Z,100.00
2022-09-12T01:24:34.823Z,100.00
2022-09-12T01:27:29.051Z,100.00
2022-09-12T01:30:05.402Z,100.00
2022-09-12T01:32:43.648Z,100.00
2022-09-12T01:35:19.806Z,100.00
2022-09-12T01:38:04.460Z,100.00
2022-09-12T01:40:49.082Z,100.00
2022-09-12T01:43:31.743Z,100.00
2022-09-12T01:46:21.026Z,100.00
2022-09-12T01:48:55.266Z,100.00
2022-09-12T01:51:51.850Z,100.00
2022-09-12T01:54:29.791Z,100.00
2022-09-12T01:57:00.393Z,100.00
2022-09-12T01:59:33.981Z,100.00
2022-09-12T02:02:07.097Z,100.00
2022-09-12T02:04:46.795Z,100.00
2022-09-12T02:07:21.365Z,100.00
2022-09-12T02:09:54.986Z,100.00
2022-09-12T02:12:27.466Z,100.00
2022-09-12T02:15:01.125Z,100.00
2022-09-12T02:17:29.581Z,100.00
2022-09-12T02:20:03.019Z,100.00
2022-09-12T02:22:31.581Z,100.00
2022-09-12T02:25:00.830Z,100.00
2022-09-12T02:27:37.794Z,100.00
2022-09-12T02:30:06.475Z,100.00
2022-09-12T02:32:45.246Z,100.00
2022-09-12T02:35:22.357Z,100.00
2022-09-12T02:37:58.427Z,100.00
2022-09-12T02:40:25.512Z,100.00
2022-09-12T02:42:52.241Z,100.00
2022-09-12T02:45:18.998Z,100.00
2022-09-12T02:47:58.720Z,100.00
2022-09-12T02:50:25.519Z,100.00
2022-09-12T02:52:54.630Z,100.00
2022-09-12T02:55:21.473Z,100.00
2022-09-12T02:57:47.847Z,100.00
2022-09-12T03:00:14.633Z,100.00
2022-09-12T03:03:04.524Z,100.00
2022-09-12T03:05:51.436Z,100.00
2022-09-12T03:08:38.035Z,100.00
2022-09-12T03:11:10.486Z,100.00
2022-09-12T03:13:36.760Z,100.00
2022-09-12T03:16:33.960Z,100.00
2022-09-12T03:19:15.849Z,100.00
2022-09-12T03:22:08.486Z,100.00
2022-09-12T03:24:45.156Z,100.00
2022-09-12T03:27:22.733Z,100.00
2022-09-12T03:29:50.859Z,100.00
2022-09-12T03:32:17.195Z,100.00
2022-09-12T03:34:43.580Z,100.00
2022-09-12T03:37:09.962Z,100.00
2022-09-12T03:39:36.286Z,100.00
2022-09-12T03:42:02.800Z,100.00
2022-09-12T03:44:29.203Z,100.00
2022-09-12T03:46:55.584Z,100.00
2022-09-12T03:49:21.915Z,100.00
2022-09-12T03:51:48.257Z,100.00
2022-09-12T03:54:14.573Z,100.00
2022-09-12T03:56:41.503Z,100.00
2022-09-12T03:59:08.239Z,100.00
2022-09-12T04:01:34.729Z,100.00
2022-09-12T04:04:01.430Z,100.00
2022-09-12T04:06:27.801Z,100.00
2022-09-12T04:08:55.178Z,100.00
2022-09-12T04:11:22.557Z,100.00
2022-09-12T04:13:49.038Z,100.00
2022-09-12T04:16:16.540Z,100.00
2022-09-12T04:18:43.617Z,100.00
2022-09-12T04:21:15.867Z,100.00
2022-09-12T04:23:42.953Z,100.00
2022-09-12T04:26:13.349Z,100.00
2022-09-12T04:28:40.251Z,100.00
2022-09-12T04:31:09.857Z,100.00
2022-09-12T04:33:36.475Z,100.00
2022-09-12T04:36:07.672Z,100.00
2022-09-12T04:38:35.697Z,100.00
2022-09-12T04:41:20.407Z,100.00
2022-09-12T04:43:51.688Z,100.00
2022-09-12T04:46:20.286Z,100.00
2022-09-12T04:48:47.854Z,100.00
2022-09-12T04:51:17.144Z,100.00
2022-09-12T04:53:49.290Z,100.00
2022-09-12T04:56:15.760Z,100.00
2022-09-12T04:58:42.362Z,100.00
2022-09-12T05:01:14.283Z,100.00
2022-09-12T05:03:43.327Z,100.00
2022-09-12T05:06:14.174Z,100.00
2022-09-12T05:08:40.938Z,100.00
2022-09-12T05:11:13.091Z,100.00
2022-09-12T05:13:40.085Z,100.00
2022-09-12T05:16:07.904Z,100.00
2022-09-12T05:18:35.979Z,100.00
2022-09-12T05:21:07.993Z,100.00
2022-09-12T05:23:34.355Z,100.00
2022-09-12T05:26:02.265Z,100.00
2022-09-12T05:28:34.491Z,100.00
2022-09-12T05:31:06.876Z,100.00
2022-09-12T05:33:37.626Z,100.00
2022-09-12T05:36:06.359Z,100.00
2022-09-12T05:38:35.592Z,100.00
2022-09-12T05:41:14.661Z,100.00
2022-09-12T05:43:43.879Z,100.00
2022-09-12T05:46:16.305Z,100.00
2022-09-12T05:48:44.495Z,100.00
2022-09-12T05:51:19.101Z,100.00
2022-09-12T05:53:53.385Z,100.00
2022-09-12T05:56:23.275Z,100.00
2022-09-12T05:58:58.264Z,100.00
2022-09-12T06:01:26.206Z,100.00
2022-09-12T06:03:54.492Z,100.00
2022-09-12T06:06:24.504Z,100.00
2022-09-12T06:08:53.171Z,100.00
2022-09-12T06:11:22.919Z,100.00
2022-09-12T06:13:50.982Z,100.00
2022-09-12T06:16:22.939Z,100.00
2022-09-12T06:18:54.038Z,100.00
2022-09-12T06:21:22.834Z,100.00
2022-09-12T06:23:49.344Z,100.00
2022-09-12T06:26:17.669Z,100.00
2022-09-12T06:28:45.212Z,100.00
2022-09-12T06:31:18.487Z,100.00
2022-09-12T06:33:48.780Z,100.00
2022-09-12T06:36:18.286Z,100.00
2022-09-12T06:38:46.264Z,100.00
2022-09-12T06:41:13.611Z,100.00
2022-09-12T06:43:41.519Z,100.00
2022-09-12T06:46:09.565Z,100.00
2022-09-12T06:48:41.607Z,100.00
2022-09-12T06:51:14.073Z,100.00
2022-09-12T06:53:41.315Z,100.00
2022-09-12T06:56:10.253Z,100.00
2022-09-12T06:58:38.569Z,100.00
2022-09-12T07:01:06.578Z,100.00
2022-09-12T07:03:33.840Z,100.00
2022-09-12T07:06:06.202Z,100.00
2022-09-12T07:08:34.056Z,100.00
2022-09-12T07:11:11.043Z,100.00
2022-09-12T07:13:38.428Z,100.00
2022-09-12T07:16:05.761Z,100.00
2022-09-12T07:18:33.341Z,100.00
2022-09-12T07:21:01.867Z,100.00
2022-09-12T07:23:29.840Z,100.00
2022-09-12T07:25:58.374Z,100.00
2022-09-12T07:28:29.359Z,100.00
2022-09-12T07:30:56.150Z,100.00
2022-09-12T07:33:29.426Z,100.00
2022-09-12T07:36:01.256Z,100.00
2022-09-12T07:38:27.631Z,100.00
2022-09-12T07:40:54.076Z,100.00
2022-09-12T07:43:20.455Z,100.00
2022-09-12T07:45:46.794Z,100.00
2022-09-12T07:48:13.846Z,100.00
2022-09-12T07:50:44.987Z,100.00
2022-09-12T07:53:11.586Z,100.00
2022-09-12T07:55:37.942Z,100.00
2022-09-12T07:58:04.359Z,100.00
2022-09-12T08:00:35.815Z,100.00
2022-09-12T08:03:07.209Z,100.00
2022-09-12T08:05:33.538Z,100.00
2022-09-12T08:07:59.883Z,100.00
2022-09-12T08:10:26.243Z,100.00
2022-09-12T08:12:52.630Z,100.00
2022-09-12T08:15:20.227Z,100.00
2022-09-12T08:17:46.673Z,100.00
2022-09-12T08:20:13.120Z,100.00
2022-09-12T08:22:40.648Z,100.00
2022-09-12T08:25:08.634Z,100.00
2022-09-12T08:27:34.977Z,100.00
2022-09-12T08:30:01.452Z,100.00
2022-09-12T08:32:28.052Z,100.00
2022-09-12T08:34:54.487Z,100.00
2022-09-12T08:37:20.812Z,100.00
2022-09-12T08:39:47.823Z,100.00
2022-09-12T08:42:31.618Z,100.00
2022-09-12T08:45:20.888Z,100.00
2022-09-12T08:47:48.739Z,100.00
2022-09-12T08:50:21.964Z,100.00
2022-09-12T08:52:58.519Z,100.00
2022-09-12T08:55:27.535Z,100.00
2022-09-12T08:57:54.235Z,99.96
2022-09-12T09:00:21.528Z,99.72
2022-09-12T09:03:20.259Z,99.59
2022-09-12T09:06:07.013Z,98.34
2022-09-12T09:08:43.565Z,97.71
2022-09-12T09:11:50.836Z,97.54
2022-09-12T09:14:48.198Z,97.54
2022-09-12T09:17:38.697Z,96.45
2022-09-12T09:20:30.104Z,95.55
2022-09-12T09:22:59.725Z,94.02
2022-09-12T09:25:57.984Z,94.14
2022-09-12T09:28:33.806Z,92.88
2022-09-12T09:31:00.405Z,92.57
2022-09-12T09:33:33.598Z,93.74
2022-09-12T09:36:06.347Z,90.68
2022-09-12T09:38:48.190Z,93.03
2022-09-12T09:41:33.776Z,93.66
2022-09-12T09:44:00.985Z,94.29
2022-09-12T09:46:27.899Z,93.85
2022-09-12T09:48:55.397Z,93.79
2022-09-12T09:51:28.420Z,92.13
2022-09-12T09:54:01.705Z,89.85
2022-09-12T09:56:33.463Z,90.44
2022-09-12T09:59:08.834Z,89.52
2022-09-12T10:01:35.294Z,90.04
2022-09-12T10:04:01.804Z,90.08
2022-09-12T10:06:34.262Z,90.15
2022-09-12T10:09:08.896Z,88.44
2022-09-12T10:11:36.308Z,88.29
2022-09-12T10:14:04.462Z,86.48
2022-09-12T10:16:48.259Z,85.60
2022-09-12T10:19:34.070Z,84.30
2022-09-12T10:22:00.982Z,84.61
2022-09-12T10:24:32.780Z,84.93
2022-09-12T10:27:15.477Z,82.24
2022-09-12T10:29:48.362Z,79.87
2022-09-12T10:32:36.053Z,83.35
2022-09-12T10:35:18.715Z,81.75
2022-09-12T10:37:58.445Z,81.48
2022-09-12T10:40:32.507Z,81.99
2022-09-12T10:43:00.327Z,80.14
2022-09-12T10:45:37.541Z,79.66
2022-09-12T10:48:31.223Z,77.61
2022-09-12T10:51:01.323Z,78.45
2022-09-12T10:53:34.475Z,77.38
2022-09-12T10:56:09.201Z,78.69
2022-09-12T10:59:00.218Z,79.14
2022-09-12T11:01:32.540Z,79.57
2022-09-12T11:04:08.000Z,77.92
2022-09-12T11:06:47.021Z,77.12
2022-09-12T11:09:21.920Z,74.50
2022-09-12T11:12:13.377Z,75.57
2022-09-12T11:14:46.074Z,75.26
2022-09-12T11:17:41.479Z,73.54
2022-09-12T11:20:14.019Z,71.40
2022-09-12T11:22:46.299Z,73.67
2022-09-12T11:25:28.410Z,74.37
2022-09-12T11:28:19.779Z,72.32
2022-09-12T11:31:06.491Z,71.06
2022-09-12T11:33:42.832Z,70.00
2022-09-12T11:36:22.000Z,71.14
2022-09-12T11:38:58.346Z,68.82
2022-09-12T11:41:38.191Z,70.42
2022-09-12T11:44:31.570Z,70.40
2022-09-12T11:46:59.375Z,69.93
2022-09-12T11:49:35.575Z,68.77
2022-09-12T11:52:18.060Z,69.53
2022-09-12T11:54:53.863Z,67.58
2022-09-12T11:57:39.210Z,68.19
2022-09-12T12:00:17.763Z,68.72
2022-09-12T12:03:13.705Z,69.29
2022-09-12T12:05:53.299Z,69.44
2022-09-12T12:08:23.285Z,69.17
2022-09-12T12:10:59.711Z,67.27
2022-09-12T12:13:40.127Z,67.50
2022-09-12T12:16:14.181Z,66.73
2022-09-12T12:18:42.810Z,67.33
2022-09-12T12:21:20.983Z,65.99
2022-09-12T12:24:08.774Z,65.40
2022-09-12T12:26:58.666Z,65.63
2022-09-12T12:29:31.038Z,66.96
2022-09-12T12:32:07.669Z,67.18
2022-09-12T12:34:44.011Z,66.85
2022-09-12T12:37:19.390Z,66.06
2022-09-12T12:39:49.739Z,65.61
2022-09-12T12:42:37.471Z,65.87
2022-09-12T12:45:06.900Z,64.89
2022-09-12T12:47:40.957Z,64.12
2022-09-12T12:50:09.989Z,65.76
2022-09-12T12:52:47.653Z,64.24
2022-09-12T12:55:26.316Z,63.31
2022-09-12T12:57:55.829Z,63.48
2022-09-12T13:00:25.373Z,62.74
2022-09-12T13:03:01.128Z,62.40
2022-09-12T13:05:30.537Z,60.43
2022-09-12T13:08:10.098Z,58.89
2022-09-12T13:10:37.696Z,58.45
2022-09-12T13:13:08.613Z,59.25
2022-09-12T13:15:38.057Z,58.50
2022-09-12T13:18:10.481Z,58.86
2022-09-12T13:20:46.929Z,58.24
2022-09-12T13:23:22.483Z,58.00
2022-09-12T13:25:53.670Z,57.27
2022-09-12T13:28:20.026Z,57.02
2022-09-12T13:31:24.392Z,57.53
2022-09-12T13:33:58.062Z,57.81
2022-09-12T13:36:32.410Z,58.71
2022-09-12T13:39:09.504Z,58.17
2022-09-12T13:42:03.423Z,57.65
2022-09-12T13:44:31.547Z,57.31
2022-09-12T13:47:01.003Z,56.05
2022-09-12T13:52:15.563Z,56.63
2022-09-12T13:54:45.803Z,57.22
2022-09-12T13:57:33.765Z,55.11
2022-09-12T14:00:02.902Z,55.64
2022-09-12T14:02:31.171Z,54.80
2022-09-12T14:05:10.206Z,55.71
2022-09-12T14:07:58.392Z,56.91
2022-09-12T14:10:30.135Z,57.53
2022-09-12T14:12:57.267Z,56.54
2022-09-12T14:15:27.136Z,56.04
2022-09-12T14:18:01.169Z,55.66
2022-09-12T14:20:33.848Z,56.27
2022-09-12T14:23:03.473Z,55.17
2022-09-12T14:25:37.372Z,54.54
2022-09-12T14:28:04.107Z,54.35
2022-09-12T14:30:32.786Z,54.57
2022-09-12T14:33:11.369Z,53.13
2022-09-12T14:35:59.144Z,56.10
2022-09-12T14:38:34.138Z,55.21
2022-09-12T14:41:08.677Z,53.03
2022-09-12T14:43:38.862Z,53.59
2022-09-12T14:46:30.442Z,53.53
2022-09-12T14:49:20.461Z,53.42
2022-09-12T14:51:56.325Z,54.11
2022-09-12T14:54:36.037Z,54.05
2022-09-12T14:57:06.417Z,54.94
2022-09-12T14:59:35.783Z,53.71
2022-09-12T15:02:20.581Z,54.75
2022-09-12T15:04:52.789Z,53.56
2022-09-12T15:07:28.365Z,54.21
2022-09-12T15:09:54.781Z,52.50
2022-09-12T15:12:22.254Z,52.94
2022-09-12T15:14:48.647Z,52.83
2022-09-12T15:17:18.859Z,53.15
2022-09-12T15:19:45.281Z,53.40
2022-09-12T15:22:13.756Z,52.79
2022-09-12T15:24:40.181Z,53.52
2022-09-12T15:27:12.032Z,53.06
2022-09-12T15:29:38.984Z,52.58
2022-09-12T15:32:06.744Z,54.74
2022-09-12T15:34:33.520Z,54.30
2022-09-12T15:37:00.123Z,54.01
2022-09-12T15:39:27.459Z,54.03
2022-09-12T15:41:54.050Z,53.67
2022-09-12T15:44:20.706Z,54.33
2022-09-12T15:46:47.150Z,53.82
2022-09-12T15:49:13.809Z,54.58
2022-09-12T15:51:40.212Z,54.92
2022-09-12T15:54:06.556Z,54.30
2022-09-12T15:56:32.911Z,53.40
2022-09-12T15:59:00.221Z,53.67
2022-09-12T16:01:29.076Z,55.01
2022-09-12T16:03:55.594Z,55.22
2022-09-12T16:06:22.492Z,54.17
2022-09-12T16:08:49.316Z,54.18
2022-09-12T16:11:26.553Z,53.52
2022-09-12T16:13:54.635Z,54.32
2022-09-12T16:16:21.617Z,53.77
2022-09-12T16:18:48.246Z,54.13
2022-09-12T16:21:15.664Z,53.42
2022-09-12T16:23:43.539Z,52.74
2022-09-12T16:26:09.911Z,53.30
2022-09-12T16:28:36.379Z,53.26
2022-09-12T16:31:05.603Z,54.04
2022-09-12T16:33:32.851Z,54.97
2022-09-12T16:36:10.390Z,53.13
2022-09-12T16:38:47.201Z,54.71
2022-09-12T16:41:15.107Z,54.84
2022-09-12T16:43:42.882Z,54.43
2022-09-12T16:46:11.752Z,54.79
2022-09-12T16:48:50.957Z,55.42
2022-09-12T16:51:22.380Z,55.88
2022-09-12T16:53:49.464Z,56.28
2022-09-12T16:56:15.916Z,56.74
2022-09-12T16:58:43.112Z,56.88
2022-09-12T17:01:12.525Z,57.79
2022-09-12T17:03:39.070Z,59.06
2022-09-12T17:06:14.232Z,59.67
2022-09-12T17:08:43.697Z,59.90
2022-09-12T17:11:12.612Z,60.96
2022-09-12T17:14:03.183Z,62.17
2022-09-12T17:16:27.251Z,62.59
2022-09-12T17:18:54.623Z,62.91
2022-09-12T17:21:22.127Z,63.75
2022-09-12T17:23:48.970Z,63.52
2022-09-12T17:26:15.520Z,63.96
2022-09-12T17:28:42.275Z,64.72
2022-09-12T17:31:11.608Z,67.07
2022-09-12T17:33:39.137Z,68.38
2022-09-12T17:36:16.992Z,69.55
2022-09-12T17:38:45.404Z,71.18
2022-09-12T17:41:15.943Z,72.69
2022-09-12T17:43:46.327Z,73.28
2022-09-12T17:46:13.526Z,74.08
2022-09-12T17:48:39.931Z,74.09
2022-09-12T17:51:15.109Z,74.34
2022-09-12T17:53:42.890Z,74.03
2022-09-12T17:56:10.748Z,73.95
2022-09-12T17:58:38.022Z,73.28
2022-09-12T18:01:29.994Z,74.50
2022-09-12T18:04:00.435Z,74.21
2022-09-12T18:06:28.645Z,74.67
2022-09-12T18:08:55.326Z,74.50
2022-09-12T18:11:21.758Z,74.49
2022-09-12T18:13:48.190Z,73.75
2022-09-12T18:16:14.698Z,73.95
2022-09-12T18:18:41.183Z,73.94
2022-09-12T18:21:10.266Z,72.87
2022-09-12T18:23:36.651Z,73.58
2022-09-12T18:26:06.301Z,74.22
2022-09-12T18:28:37.762Z,73.48
2022-09-12T18:31:09.262Z,72.73
2022-09-12T18:33:35.622Z,73.00
2022-09-12T18:36:06.066Z,72.50
2022-09-12T18:38:32.916Z,73.29
2022-09-12T18:41:07.732Z,71.96
2022-09-12T18:43:34.336Z,73.03
2022-09-12T18:46:05.314Z,74.50
2022-09-12T18:48:35.263Z,73.80
2022-09-12T18:51:06.712Z,74.10
2022-09-12T18:53:34.616Z,73.90
2022-09-12T18:56:12.057Z,76.89
2022-09-12T18:58:40.571Z,78.86
2022-09-12T19:01:12.298Z,78.30
2022-09-12T19:03:39.143Z,79.59
2022-09-12T19:06:11.719Z,80.30
2022-09-12T19:08:38.766Z,80.61
2022-09-12T19:11:06.867Z,80.96
2022-09-12T19:13:36.483Z,81.08
2022-09-12T19:16:04.695Z,82.24
2022-09-12T19:18:33.963Z,82.61
2022-09-12T19:21:01.367Z,82.51
2022-09-12T19:23:27.778Z,82.97
2022-09-12T19:25:58.960Z,83.77
2022-09-12T19:28:26.221Z,83.16
2022-09-12T19:30:53.515Z,83.18
2022-09-12T19:33:20.662Z,83.28
2022-09-12T19:35:47.455Z,82.82
2022-09-12T19:38:14.056Z,84.21
2022-09-12T19:40:40.605Z,85.41
2022-09-12T19:43:07.567Z,85.90
2022-09-12T19:45:33.967Z,86.27
2022-09-12T19:48:00.315Z,86.21
2022-09-12T19:50:27.490Z,85.85
2022-09-12T19:52:53.918Z,86.00
2022-09-12T19:55:20.388Z,87.59
2022-09-12T19:57:46.847Z,88.46
2022-09-12T20:00:14.106Z,87.67
2022-09-12T20:02:40.486Z,88.47
2022-09-12T20:05:07.137Z,89.46
2022-09-12T20:07:33.493Z,91.03
2022-09-12T20:09:59.805Z,91.19
2022-09-12T20:12:26.140Z,90.71
2022-09-12T20:14:52.497Z,90.65
2022-09-12T20:17:19.470Z,91.24
2022-09-12T20:19:45.891Z,92.71
2022-09-12T20:22:12.300Z,93.43
2022-09-12T20:24:38.646Z,93.64
2022-09-12T20:27:04.999Z,93.44
2022-09-12T20:29:31.410Z,95.11
2022-09-12T20:31:57.824Z,95.53
2022-09-12T20:34:24.197Z,95.44
2022-09-12T20:36:50.734Z,96.51
2022-09-12T20:39:20.731Z,96.30
2022-09-12T20:41:47.487Z,96.74
2022-09-12T20:44:14.666Z,96.55
2022-09-12T20:46:41.533Z,95.82
2022-09-12T20:49:08.853Z,97.21
2022-09-12T20:51:38.725Z,96.67
2022-09-12T20:54:06.636Z,97.55
2022-09-12T20:56:34.965Z,97.81
2022-09-12T20:59:01.713Z,98.06
2022-09-12T21:01:30.044Z,98.92
2022-09-12T21:03:56.780Z,99.23
2022-09-12T21:06:23.590Z,100.00
2022-09-12T21:08:51.018Z,99.92
2022-09-12T21:11:19.032Z,100.00
2022-09-12T21:13:46.006Z,100.00
2022-09-12T21:16:18.125Z,100.00
2022-09-12T21:18:44.694Z,100.00
2022-09-12T21:21:12.861Z,100.00
2022-09-12T21:23:39.515Z,100.00
2022-09-12T21:26:07.485Z,100.00
2022-09-12T21:28:34.261Z,100.00
2022-09-12T21:31:00.776Z,100.00
2022-09-12T21:33:27.968Z,100.00
2022-09-12T21:35:54.965Z,100.00
2022-09-12T21:38:21.350Z,100.00
2022-09-12T21:40:47.792Z,100.00
2022-09-12T21:43:14.301Z,100.00
2022-09-12T21:45:40.819Z,100.00
2022-09-12T21:48:07.523Z,100.00
2022-09-12T21:50:34.312Z,100.00
2022-09-12T21:53:00.653Z,100.00
2022-09-12T21:55:27.352Z,100.00
2022-09-12T21:57:54.805Z,100.00
2022-09-12T22:00:21.839Z,100.00
2022-09-12T22:02:48.801Z,100.00
2022-09-12T22:05:15.453Z,100.00
2022-09-12T22:07:42.053Z,100.00
2022-09-12T22:10:09.125Z,100.00
2022-09-12T22:12:35.488Z,100.00
2022-09-12T22:15:17.507Z,100.00
2022-09-12T22:17:48.177Z,100.00
2022-09-12T22:20:14.610Z,100.00
2022-09-12T22:22:59.619Z,100.00
2022-09-12T22:25:25.961Z,100.00
2022-09-12T22:27:52.945Z,100.00
2022-09-12T22:30:20.843Z,100.00
2022-09-12T22:32:49.544Z,100.00
2022-09-12T22:35:17.441Z,100.00
2022-09-12T22:37:44.283Z,100.00
2022-09-12T22:40:11.670Z,100.00
2022-09-12T22:42:38.312Z,100.00
2022-09-12T22:45:05.930Z,100.00
2022-09-12T22:47:32.289Z,100.00
2022-09-12T22:49:58.796Z,100.00
2022-09-12T22:52:25.149Z,100.00
2022-09-12T22:54:51.501Z,100.00
2022-09-12T22:57:18.030Z,100.00
2022-09-12T22:59:44.406Z,100.00
2022-09-12T23:02:10.745Z,100.00
2022-09-12T23:04:37.572Z,100.00
2022-09-12T23:07:03.973Z,100.00
2022-09-12T23:09:35.117Z,100.00
2022-09-12T23:12:01.965Z,100.00
2022-09-12T23:14:29.509Z,100.00
2022-09-12T23:16:55.880Z,100.00
2022-09-12T23:19:22.351Z,100.00
2022-09-12T23:21:48.700Z,100.00
2022-09-12T23:24:15.037Z,100.00
2022-09-12T23:26:41.366Z,100.00
2022-09-12T23:29:08.996Z,100.00
2022-09-12T23:31:35.537Z,100.00
2022-09-12T23:34:05.760Z,100.00
2022-09-12T23:36:33.257Z,100.00
2022-09-12T23:38:59.749Z,100.00
2022-09-12T23:41:26.135Z,100.00
2022-09-12T23:43:52.571Z,100.00
2022-09-12T23:46:19.947Z,100.00
2022-09-12T23:48:46.517Z,100.00
2022-09-12T23:51:13.540Z,100.00
2022-09-12T23:53:41.270Z,100.00
2022-09-12T23:56:07.920Z,100.00
2022-09-12T23:58:34.429Z,100.00
